createdAt,value
2016-11-13T00:00:21.485Z,0
2016-11-13T00:01:30.174Z,0
2016-11-13T00:02:39.490Z,0
2016-11-13T00:03:48.511Z,0
2016-11-13T00:04:57.196Z,0
2016-11-13T00:06:06.196Z,0
2016-11-13T00:07:14.878Z,0
2016-11-13T00:08:23.563Z,0
2016-11-13T00:09:32.254Z,0
2016-11-13T00:10:40.956Z,0
2016-11-13T00:11:50.264Z,0
2016-11-13T00:13:00.174Z,0
2016-11-13T00:14:09.820Z,0
2016-11-13T00:15:19.747Z,0
2016-11-13T00:16:28.432Z,4
2016-11-13T00:17:37.428Z,4
2016-11-13T00:18:46.113Z,4
2016-11-13T00:19:55.127Z,0
2016-11-13T00:21:03.814Z,0
2016-11-13T00:22:12.520Z,0
2016-11-13T00:23:21.825Z,0
2016-11-13T00:24:31.114Z,0
2016-11-13T00:25:40.418Z,0
2016-11-13T00:26:49.416Z,0
2016-11-13T00:27:59.026Z,0
2016-11-13T00:29:08.184Z,0
2016-11-13T00:30:16.872Z,0
2016-11-13T00:31:25.874Z,0
2016-11-13T00:32:35.189Z,0
2016-11-13T00:33:44.487Z,0
2016-11-13T00:34:53.792Z,0
2016-11-13T00:36:02.784Z,0
2016-11-13T00:37:11.472Z,0
2016-11-13T00:38:20.766Z,0
2016-11-13T00:39:30.695Z,0
2016-11-13T00:40:40.211Z,0
2016-11-13T00:41:49.882Z,0
2016-11-13T00:42:58.886Z,0
2016-11-13T00:44:07.608Z,0
2016-11-13T00:45:16.301Z,0
2016-11-13T00:46:26.212Z,0
2016-11-13T00:47:35.209Z,0
2016-11-13T00:48:43.884Z,0
2016-11-13T00:49:52.885Z,0
2016-11-13T00:51:02.182Z,0
2016-11-13T00:52:11.479Z,0
2016-11-13T00:53:20.466Z,0
2016-11-13T00:54:29.754Z,0
2016-11-13T00:55:38.739Z,0
2016-11-13T00:56:47.734Z,0
2016-11-13T00:57:56.418Z,0
2016-11-13T00:59:05.729Z,0
2016-11-13T01:00:14.752Z,0
2016-11-13T01:01:24.068Z,0
2016-11-13T01:02:32.756Z,0
2016-11-13T01:03:42.210Z,0
2016-11-13T01:04:51.199Z,0
2016-11-13T01:05:59.899Z,0
2016-11-13T01:07:08.892Z,0
2016-11-13T01:08:18.200Z,0
2016-11-13T01:09:27.497Z,0
2016-11-13T01:10:36.183Z,0
2016-11-13T01:11:44.877Z,0
2016-11-13T01:12:54.485Z,0
2016-11-13T01:14:03.772Z,0
2016-11-13T01:15:13.530Z,0
2016-11-13T01:16:22.219Z,0
2016-11-13T01:17:31.523Z,0
2016-11-13T01:18:40.508Z,0
2016-11-13T01:19:49.199Z,0
2016-11-13T01:20:58.846Z,0
2016-11-13T01:22:08.149Z,0
2016-11-13T01:23:17.140Z,0
2016-11-13T01:24:25.833Z,0
2016-11-13T01:25:34.548Z,0
2016-11-13T01:26:43.544Z,0
2016-11-13T01:27:52.542Z,0
2016-11-13T01:29:01.233Z,0
2016-11-13T01:30:10.229Z,0
2016-11-13T01:31:18.920Z,0
2016-11-13T01:32:28.222Z,0
2016-11-13T01:33:37.821Z,0
2016-11-13T01:34:46.810Z,0
2016-11-13T01:35:56.098Z,0
2016-11-13T01:37:05.152Z,0
2016-11-13T01:38:14.122Z,0
2016-11-13T01:39:23.118Z,0
2016-11-13T01:40:32.416Z,0
2016-11-13T01:41:41.750Z,0
2016-11-13T01:42:51.046Z,0
2016-11-13T01:44:00.183Z,0
2016-11-13T01:45:08.878Z,0
2016-11-13T01:46:17.875Z,0
2016-11-13T01:47:27.485Z,0
2016-11-13T01:48:36.486Z,0
2016-11-13T01:49:45.379Z,0
2016-11-13T01:50:54.368Z,0
2016-11-13T01:52:03.659Z,0
2016-11-13T01:53:12.987Z,0
2016-11-13T01:54:22.596Z,0
2016-11-13T01:55:31.590Z,0
2016-11-13T01:56:40.884Z,0
2016-11-13T01:57:49.861Z,0
2016-11-13T01:58:58.543Z,0
2016-11-13T02:00:07.530Z,0
2016-11-13T02:01:16.820Z,0
2016-11-13T02:02:25.808Z,0
2016-11-13T02:03:34.799Z,0
2016-11-13T02:04:43.797Z,0
2016-11-13T02:05:52.491Z,0
2016-11-13T02:07:01.942Z,0
2016-11-13T02:08:10.937Z,0
2016-11-13T02:09:19.647Z,0
2016-11-13T02:10:28.645Z,0
2016-11-13T02:11:38.558Z,0
2016-11-13T02:12:47.417Z,0
2016-11-13T02:13:56.110Z,0
2016-11-13T02:15:04.794Z,0
2016-11-13T02:16:14.099Z,0
2016-11-13T02:17:23.078Z,0
2016-11-13T02:18:32.715Z,0
2016-11-13T02:19:41.412Z,0
2016-11-13T02:20:50.398Z,0
2016-11-13T02:21:59.713Z,0
2016-11-13T02:23:08.408Z,0
2016-11-13T02:24:17.747Z,0
2016-11-13T02:25:26.739Z,0
2016-11-13T02:26:35.736Z,0
2016-11-13T02:27:44.438Z,0
2016-11-13T02:28:53.428Z,0
2016-11-13T02:30:02.263Z,0
2016-11-13T02:31:10.948Z,0
2016-11-13T02:32:19.632Z,0
2016-11-13T02:33:29.235Z,0
2016-11-13T02:34:38.227Z,0
2016-11-13T02:35:47.528Z,0
2016-11-13T02:36:56.821Z,0
2016-11-13T02:38:05.605Z,0
2016-11-13T02:39:14.910Z,0
2016-11-13T02:40:23.603Z,0
2016-11-13T02:41:32.898Z,0
2016-11-13T02:42:41.907Z,0
2016-11-13T02:43:50.623Z,0
2016-11-13T02:44:59.922Z,0
2016-11-13T02:46:08.607Z,0
2016-11-13T02:47:17.889Z,0
2016-11-13T02:48:26.603Z,0
2016-11-13T02:49:35.273Z,0
2016-11-13T02:50:44.281Z,0
2016-11-13T02:51:53.577Z,0
2016-11-13T02:53:02.916Z,0
2016-11-13T02:54:11.895Z,0
2016-11-13T02:55:21.224Z,0
2016-11-13T02:56:30.211Z,0
2016-11-13T02:57:39.516Z,0
2016-11-13T02:58:48.498Z,0
2016-11-13T02:59:57.799Z,0
2016-11-13T03:01:06.891Z,0
2016-11-13T03:02:15.894Z,0
2016-11-13T03:03:24.595Z,0
2016-11-13T03:04:34.487Z,0
2016-11-13T03:05:44.395Z,0
2016-11-13T03:06:53.401Z,0
2016-11-13T03:08:02.084Z,0
2016-11-13T03:09:11.387Z,0
2016-11-13T03:10:20.366Z,0
2016-11-13T03:11:29.665Z,0
2016-11-13T03:12:38.645Z,0
2016-11-13T03:13:47.953Z,0
2016-11-13T03:14:56.638Z,0
2016-11-13T03:16:06.247Z,0
2016-11-13T03:17:15.853Z,0
2016-11-13T03:18:24.533Z,0
2016-11-13T03:19:33.224Z,0
2016-11-13T03:20:41.906Z,0
2016-11-13T03:21:51.239Z,0
2016-11-13T03:23:00.264Z,0
2016-11-13T03:24:09.559Z,0
2016-11-13T03:25:18.257Z,0
2016-11-13T03:26:27.242Z,0
2016-11-13T03:27:36.842Z,0
2016-11-13T03:28:45.541Z,0
2016-11-13T03:29:54.247Z,0
2016-11-13T03:31:03.234Z,0
2016-11-13T03:32:12.273Z,0
2016-11-13T03:33:20.978Z,0
2016-11-13T03:34:29.980Z,0
2016-11-13T03:35:38.686Z,0
2016-11-13T03:36:47.682Z,0
2016-11-13T03:37:56.981Z,0
2016-11-13T03:39:06.273Z,0
2016-11-13T03:40:15.568Z,0
2016-11-13T03:41:24.563Z,0
2016-11-13T03:42:33.564Z,0
2016-11-13T03:43:42.552Z,0
2016-11-13T03:44:51.394Z,0
2016-11-13T03:46:00.384Z,0
2016-11-13T03:47:09.689Z,0
2016-11-13T03:48:18.674Z,0
2016-11-13T03:49:27.971Z,0
2016-11-13T03:50:36.953Z,0
2016-11-13T03:51:45.651Z,0
2016-11-13T03:52:54.649Z,0
2016-11-13T03:54:03.937Z,0
2016-11-13T03:55:12.934Z,0
2016-11-13T03:56:21.914Z,0
2016-11-13T03:57:31.204Z,0
2016-11-13T03:58:40.530Z,0
2016-11-13T03:59:49.520Z,0
2016-11-13T04:00:58.810Z,0
2016-11-13T04:02:08.716Z,0
2016-11-13T04:03:18.011Z,0
2016-11-13T04:04:27.024Z,0
2016-11-13T04:05:36.018Z,0
2016-11-13T04:06:45.006Z,0
2016-11-13T04:07:53.987Z,0
2016-11-13T04:09:02.671Z,0
2016-11-13T04:10:11.968Z,0
2016-11-13T04:11:20.961Z,0
2016-11-13T04:12:29.640Z,0
2016-11-13T04:13:38.327Z,0
2016-11-13T04:14:47.026Z,0
2016-11-13T04:15:55.715Z,0
2016-11-13T04:17:04.706Z,0
2016-11-13T04:18:14.043Z,0
2016-11-13T04:19:23.652Z,0
2016-11-13T04:20:32.643Z,0
2016-11-13T04:21:41.338Z,0
2016-11-13T04:22:50.643Z,0
2016-11-13T04:23:59.679Z,0
2016-11-13T04:25:08.977Z,0
2016-11-13T04:26:17.973Z,0
2016-11-13T04:27:27.284Z,0
2016-11-13T04:28:35.995Z,0
2016-11-13T04:29:44.724Z,0
2016-11-13T04:30:54.179Z,0
2016-11-13T04:32:03.165Z,0
2016-11-13T04:33:12.155Z,0
2016-11-13T04:34:21.452Z,0
2016-11-13T04:35:30.136Z,0
2016-11-13T04:36:39.167Z,0
2016-11-13T04:37:48.177Z,0
2016-11-13T04:38:57.475Z,0
2016-11-13T04:40:06.455Z,0
2016-11-13T04:41:15.148Z,0
2016-11-13T04:42:23.979Z,0
2016-11-13T04:43:33.587Z,0
2016-11-13T04:44:42.889Z,0
2016-11-13T04:45:51.905Z,0
2016-11-13T04:47:01.205Z,0
2016-11-13T04:48:10.504Z,0
2016-11-13T04:49:19.524Z,0
2016-11-13T04:50:28.824Z,0
2016-11-13T04:51:37.833Z,0
2016-11-13T04:52:47.147Z,0
2016-11-13T04:53:57.054Z,0
2016-11-13T04:55:06.047Z,0
2016-11-13T04:56:15.964Z,0
2016-11-13T04:57:24.969Z,0
2016-11-13T04:58:33.989Z,0
2016-11-13T04:59:42.678Z,0
2016-11-13T05:00:51.394Z,0
2016-11-13T05:02:00.692Z,0
2016-11-13T05:03:09.989Z,0
2016-11-13T05:04:19.596Z,0
2016-11-13T05:05:28.931Z,0
2016-11-13T05:06:37.613Z,0
2016-11-13T05:07:46.308Z,0
2016-11-13T05:08:55.606Z,0
2016-11-13T05:10:04.624Z,0
2016-11-13T05:11:14.534Z,0
2016-11-13T05:12:23.514Z,0
2016-11-13T05:13:32.499Z,0
2016-11-13T05:14:41.180Z,0
2016-11-13T05:15:49.872Z,0
2016-11-13T05:16:59.468Z,0
2016-11-13T05:18:09.078Z,0
2016-11-13T05:19:18.385Z,0
2016-11-13T05:20:27.682Z,0
2016-11-13T05:21:36.683Z,0
2016-11-13T05:22:45.987Z,0
2016-11-13T05:23:54.980Z,0
2016-11-13T05:25:04.578Z,0
2016-11-13T05:26:13.879Z,0
2016-11-13T05:27:22.857Z,0
2016-11-13T05:28:32.355Z,0
2016-11-13T05:29:41.368Z,0
2016-11-13T05:30:50.370Z,0
2016-11-13T05:31:59.360Z,0
2016-11-13T05:33:08.650Z,0
2016-11-13T05:34:18.391Z,0
2016-11-13T05:35:27.998Z,0
2016-11-13T05:36:37.290Z,0
2016-11-13T05:37:46.271Z,0
2016-11-13T05:38:54.962Z,0
2016-11-13T05:40:04.584Z,0
2016-11-13T05:41:14.204Z,0
2016-11-13T05:42:23.195Z,0
2016-11-13T05:43:32.175Z,0
2016-11-13T05:44:41.175Z,0
2016-11-13T05:45:49.855Z,0
2016-11-13T05:46:59.460Z,0
2016-11-13T05:48:08.754Z,0
2016-11-13T05:49:17.434Z,0
2016-11-13T05:50:26.737Z,0
2016-11-13T05:51:36.646Z,0
2016-11-13T05:52:46.252Z,0
2016-11-13T05:53:54.936Z,0
2016-11-13T05:55:03.938Z,0
2016-11-13T05:56:13.260Z,0
2016-11-13T05:57:23.232Z,0
2016-11-13T05:58:32.261Z,0
2016-11-13T05:59:41.624Z,0
2016-11-13T06:00:50.628Z,0
2016-11-13T06:01:59.635Z,0
2016-11-13T06:03:09.250Z,0
2016-11-13T06:04:18.016Z,0
2016-11-13T06:05:27.633Z,0
2016-11-13T06:06:36.934Z,0
2016-11-13T06:07:45.612Z,0
2016-11-13T06:08:54.610Z,0
2016-11-13T06:10:03.656Z,0
2016-11-13T06:11:12.379Z,0
2016-11-13T06:12:21.376Z,0
2016-11-13T06:13:30.059Z,0
2016-11-13T06:14:39.374Z,0
2016-11-13T06:15:48.062Z,0
2016-11-13T06:16:56.755Z,0
2016-11-13T06:18:05.441Z,0
2016-11-13T06:19:14.133Z,0
2016-11-13T06:20:23.888Z,0
2016-11-13T06:21:33.201Z,0
2016-11-13T06:22:41.883Z,0
2016-11-13T06:23:50.912Z,0
2016-11-13T06:24:59.640Z,0
2016-11-13T06:26:08.321Z,0
2016-11-13T06:27:16.998Z,0
2016-11-13T06:28:25.683Z,0
2016-11-13T06:29:34.421Z,0
2016-11-13T06:30:43.415Z,0
2016-11-13T06:31:52.409Z,0
2016-11-13T06:33:01.448Z,0
2016-11-13T06:34:10.470Z,0
2016-11-13T06:35:19.466Z,0
2016-11-13T06:36:28.764Z,0
2016-11-13T06:37:38.358Z,0
2016-11-13T06:38:47.087Z,0
2016-11-13T06:39:55.787Z,0
2016-11-13T06:41:04.792Z,0
2016-11-13T06:42:13.817Z,4
2016-11-13T06:43:22.526Z,4
2016-11-13T06:44:31.526Z,4
2016-11-13T06:45:40.531Z,4
2016-11-13T06:46:49.517Z,4
2016-11-13T06:47:58.566Z,0
2016-11-13T06:49:07.581Z,4
2016-11-13T06:50:16.627Z,4
2016-11-13T06:51:25.957Z,4
2016-11-13T06:52:34.699Z,4
2016-11-13T06:53:44.073Z,8
2016-11-13T06:54:52.884Z,8
2016-11-13T06:56:01.656Z,8
2016-11-13T06:57:10.688Z,4
2016-11-13T06:58:19.423Z,4
2016-11-13T06:59:28.189Z,4
2016-11-13T07:00:37.368Z,4
2016-11-13T07:01:47.230Z,8
2016-11-13T07:02:55.931Z,8
2016-11-13T07:04:04.950Z,8
2016-11-13T07:05:14.253Z,8
2016-11-13T07:06:23.275Z,8
2016-11-13T07:07:32.263Z,12
2016-11-13T07:08:40.941Z,12
2016-11-13T07:09:49.951Z,12
2016-11-13T07:10:59.245Z,12
2016-11-13T07:12:08.544Z,12
2016-11-13T07:13:17.854Z,16
2016-11-13T07:14:26.883Z,12
2016-11-13T07:15:35.580Z,16
2016-11-13T07:16:44.576Z,12
2016-11-13T07:17:53.885Z,16
2016-11-13T07:19:02.884Z,20
2016-11-13T07:20:11.879Z,20
2016-11-13T07:21:20.875Z,20
2016-11-13T07:22:30.159Z,20
2016-11-13T07:23:39.159Z,20
2016-11-13T07:24:48.470Z,24
2016-11-13T07:25:57.454Z,24
2016-11-13T07:27:06.764Z,28
2016-11-13T07:28:16.364Z,28
2016-11-13T07:29:26.018Z,28
2016-11-13T07:30:34.702Z,28
2016-11-13T07:31:43.394Z,28
2016-11-13T07:32:52.384Z,24
2016-11-13T07:34:01.369Z,28
2016-11-13T07:35:10.976Z,28
2016-11-13T07:36:20.283Z,32
2016-11-13T07:37:29.582Z,32
2016-11-13T07:38:38.272Z,32
2016-11-13T07:39:47.271Z,36
2016-11-13T07:40:56.274Z,36
2016-11-13T07:42:05.582Z,36
2016-11-13T07:43:14.279Z,40
2016-11-13T07:44:23.269Z,40
2016-11-13T07:45:32.870Z,40
2016-11-13T07:46:42.835Z,40
2016-11-13T07:47:51.842Z,40
2016-11-13T07:49:00.528Z,44
2016-11-13T07:50:09.528Z,48
2016-11-13T07:51:18.515Z,52
2016-11-13T07:52:27.327Z,52
2016-11-13T07:53:36.009Z,52
2016-11-13T07:54:44.709Z,52
2016-11-13T07:55:54.321Z,52
2016-11-13T07:57:03.016Z,48
2016-11-13T07:58:12.675Z,48
2016-11-13T07:59:21.367Z,48
2016-11-13T08:00:30.068Z,48
2016-11-13T08:01:39.372Z,52
2016-11-13T08:02:48.089Z,56
2016-11-13T08:03:57.100Z,60
2016-11-13T08:05:06.093Z,56
2016-11-13T08:06:15.414Z,56
2016-11-13T08:07:25.044Z,52
2016-11-13T08:08:34.343Z,56
2016-11-13T08:09:43.031Z,56
2016-11-13T08:10:52.028Z,56
2016-11-13T08:12:00.720Z,56
2016-11-13T08:13:10.025Z,60
2016-11-13T08:14:19.329Z,64
2016-11-13T08:15:28.019Z,60
2016-11-13T08:16:36.748Z,64
2016-11-13T08:17:45.745Z,64
2016-11-13T08:18:54.431Z,64
2016-11-13T08:20:03.730Z,68
2016-11-13T08:21:12.879Z,68
2016-11-13T08:22:21.560Z,68
2016-11-13T08:23:30.577Z,72
2016-11-13T08:24:39.588Z,76
2016-11-13T08:25:48.921Z,72
2016-11-13T08:26:57.637Z,72
2016-11-13T08:28:06.321Z,68
2016-11-13T08:29:15.621Z,64
2016-11-13T08:30:24.615Z,68
2016-11-13T08:31:34.531Z,68
2016-11-13T08:32:44.149Z,72
2016-11-13T08:33:52.842Z,68
2016-11-13T08:35:01.863Z,72
2016-11-13T08:36:10.650Z,76
2016-11-13T08:37:19.658Z,76
2016-11-13T08:38:28.489Z,80
2016-11-13T08:39:37.480Z,84
2016-11-13T08:40:46.471Z,84
2016-11-13T08:41:55.815Z,84
2016-11-13T08:43:04.541Z,88
2016-11-13T08:44:14.175Z,92
2016-11-13T08:45:22.997Z,92
2016-11-13T08:46:32.092Z,88
2016-11-13T08:47:41.418Z,92
2016-11-13T08:48:50.415Z,92
2016-11-13T08:49:59.760Z,92
2016-11-13T08:51:08.774Z,92
2016-11-13T08:52:17.473Z,88
2016-11-13T08:53:26.877Z,88
2016-11-13T08:54:35.895Z,84
2016-11-13T08:55:45.447Z,80
2016-11-13T08:56:54.544Z,80
2016-11-13T08:58:04.137Z,80
2016-11-13T08:59:13.549Z,84
2016-11-13T09:00:22.324Z,88
2016-11-13T09:01:31.013Z,88
2016-11-13T09:02:40.151Z,92
2016-11-13T09:03:49.474Z,92
2016-11-13T09:04:58.859Z,100
2016-11-13T09:06:07.979Z,108
2016-11-13T09:07:17.289Z,112
2016-11-13T09:08:26.743Z,116
2016-11-13T09:09:36.577Z,124
2016-11-13T09:10:45.271Z,124
2016-11-13T09:11:54.262Z,124
2016-11-13T09:13:02.949Z,120
2016-11-13T09:14:11.636Z,120
2016-11-13T09:15:21.301Z,116
2016-11-13T09:16:29.999Z,112
2016-11-13T09:17:39.065Z,108
2016-11-13T09:18:48.066Z,108
2016-11-13T09:19:56.747Z,108
2016-11-13T09:21:05.459Z,108
2016-11-13T09:22:14.763Z,108
2016-11-13T09:23:23.763Z,108
2016-11-13T09:24:33.077Z,108
2016-11-13T09:25:41.764Z,116
2016-11-13T09:26:50.754Z,116
2016-11-13T09:27:59.771Z,116
2016-11-13T09:29:08.485Z,116
2016-11-13T09:30:18.086Z,116
2016-11-13T09:31:27.075Z,108
2016-11-13T09:32:35.766Z,112
2016-11-13T09:33:44.772Z,112
2016-11-13T09:34:54.079Z,108
2016-11-13T09:36:03.066Z,108
2016-11-13T09:37:12.369Z,96
2016-11-13T09:38:21.058Z,92
2016-11-13T09:39:29.752Z,88
2016-11-13T09:40:39.050Z,80
2016-11-13T09:41:48.054Z,72
2016-11-13T09:42:57.365Z,72
2016-11-13T09:44:07.034Z,68
2016-11-13T09:45:16.043Z,68
2016-11-13T09:46:25.045Z,64
2016-11-13T09:47:34.642Z,68
2016-11-13T09:48:43.644Z,68
2016-11-13T09:49:53.270Z,76
2016-11-13T09:51:01.994Z,80
2016-11-13T09:52:10.699Z,84
2016-11-13T09:53:19.711Z,88
2016-11-13T09:54:28.395Z,88
2016-11-13T09:55:37.091Z,84
2016-11-13T09:56:46.091Z,80
2016-11-13T09:57:55.387Z,84
2016-11-13T09:59:04.402Z,76
2016-11-13T10:00:13.105Z,80
2016-11-13T10:01:22.427Z,80
2016-11-13T10:02:31.125Z,80
2016-11-13T10:03:40.128Z,80
2016-11-13T10:04:49.137Z,80
2016-11-13T10:05:58.133Z,84
2016-11-13T10:07:06.828Z,88
2016-11-13T10:08:15.823Z,92
2016-11-13T10:09:24.521Z,92
2016-11-13T10:10:33.834Z,96
2016-11-13T10:11:43.155Z,104
2016-11-13T10:12:52.456Z,108
2016-11-13T10:14:01.781Z,116
2016-11-13T10:15:10.474Z,116
2016-11-13T10:16:20.078Z,120
2016-11-13T10:17:29.395Z,120
2016-11-13T10:18:38.685Z,120
2016-11-13T10:19:47.398Z,120
2016-11-13T10:20:56.705Z,124
2016-11-13T10:22:06.697Z,132
2016-11-13T10:23:16.020Z,136
2016-11-13T10:24:25.320Z,132
2016-11-13T10:25:34.315Z,132
2016-11-13T10:26:43.001Z,124
2016-11-13T10:27:51.996Z,124
2016-11-13T10:29:01.323Z,120
2016-11-13T10:30:10.318Z,124
2016-11-13T10:31:19.312Z,120
2016-11-13T10:32:28.680Z,116
2016-11-13T10:33:37.675Z,120
2016-11-13T10:34:46.362Z,120
2016-11-13T10:35:55.968Z,120
2016-11-13T10:37:04.662Z,120
2016-11-13T10:38:13.666Z,132
2016-11-13T10:39:22.662Z,132
2016-11-13T10:40:31.970Z,136
2016-11-13T10:41:40.978Z,144
2016-11-13T10:42:50.304Z,144
2016-11-13T10:43:58.991Z,152
2016-11-13T10:45:07.989Z,164
2016-11-13T10:46:17.304Z,164
2016-11-13T10:47:26.298Z,168
2016-11-13T10:48:35.014Z,164
2016-11-13T10:49:44.008Z,160
2016-11-13T10:50:53.309Z,160
2016-11-13T10:52:02.300Z,152
2016-11-13T10:53:10.999Z,140
2016-11-13T10:54:19.698Z,132
2016-11-13T10:55:29.421Z,128
2016-11-13T10:56:38.731Z,124
2016-11-13T10:57:48.123Z,124
2016-11-13T10:58:57.031Z,124
2016-11-13T11:00:06.765Z,120
2016-11-13T11:01:15.457Z,124
2016-11-13T11:02:24.145Z,124
2016-11-13T11:03:33.205Z,132
2016-11-13T11:04:42.290Z,132
2016-11-13T11:05:51.693Z,136
2016-11-13T11:07:01.051Z,132
2016-11-13T11:08:10.149Z,132
2016-11-13T11:09:19.970Z,132
2016-11-13T11:10:28.737Z,136
2016-11-13T11:11:38.235Z,140
2016-11-13T11:12:47.428Z,140
2016-11-13T11:13:57.445Z,152
2016-11-13T11:15:06.269Z,156
2016-11-13T11:16:15.596Z,160
2016-11-13T11:17:24.399Z,160
2016-11-13T11:18:33.387Z,156
2016-11-13T11:19:42.093Z,148
2016-11-13T11:20:52.127Z,140
2016-11-13T11:22:01.460Z,132
2016-11-13T11:23:10.904Z,132
2016-11-13T11:24:19.920Z,128
2016-11-13T11:25:28.973Z,124
2016-11-13T11:26:38.000Z,124
2016-11-13T11:27:47.325Z,124
2016-11-13T11:28:56.328Z,124
2016-11-13T11:30:05.655Z,116
2016-11-13T11:31:14.363Z,112
2016-11-13T11:32:23.076Z,116
2016-11-13T11:33:31.804Z,120
2016-11-13T11:34:40.822Z,124
2016-11-13T11:35:50.169Z,128
2016-11-13T11:36:59.169Z,136
2016-11-13T11:38:07.851Z,140
2016-11-13T11:39:16.850Z,152
2016-11-13T11:40:25.854Z,156
2016-11-13T11:41:34.888Z,152
2016-11-13T11:42:44.249Z,148
2016-11-13T11:43:53.298Z,140
2016-11-13T11:45:02.315Z,136
2016-11-13T11:46:11.640Z,136
2016-11-13T11:47:20.649Z,136
2016-11-13T11:48:30.434Z,140
2016-11-13T11:49:39.725Z,140
2016-11-13T11:50:48.409Z,144
2016-11-13T11:51:58.044Z,152
2016-11-13T11:53:07.050Z,156
2016-11-13T11:54:15.786Z,160
2016-11-13T11:55:25.411Z,168
2016-11-13T11:56:34.108Z,172
2016-11-13T11:57:43.403Z,176
2016-11-13T11:58:53.072Z,168
2016-11-13T12:00:02.854Z,160
2016-11-13T12:01:11.868Z,152
2016-11-13T12:02:20.882Z,140
2016-11-13T12:03:30.501Z,132
2016-11-13T12:04:39.505Z,132
2016-11-13T12:05:48.505Z,124
2016-11-13T12:06:57.510Z,124
2016-11-13T12:08:06.511Z,124
2016-11-13T12:09:15.207Z,124
2016-11-13T12:10:24.219Z,124
2016-11-13T12:11:32.975Z,128
2016-11-13T12:12:41.985Z,120
2016-11-13T12:13:51.312Z,120
2016-11-13T12:15:00.321Z,120
2016-11-13T12:16:09.943Z,116
2016-11-13T12:17:18.926Z,116
2016-11-13T12:18:27.926Z,116
2016-11-13T12:19:36.655Z,120
2016-11-13T12:20:45.677Z,120
2016-11-13T12:21:55.001Z,120
2016-11-13T12:23:04.605Z,124
2016-11-13T12:24:13.286Z,124
2016-11-13T12:25:22.588Z,124
2016-11-13T12:26:31.287Z,124
2016-11-13T12:27:40.601Z,120
2016-11-13T12:28:49.761Z,116
2016-11-13T12:29:59.382Z,112
2016-11-13T12:31:08.999Z,112
2016-11-13T12:32:18.348Z,108
2016-11-13T12:33:27.340Z,108
2016-11-13T12:34:36.632Z,108
2016-11-13T12:35:45.325Z,104
2016-11-13T12:36:54.032Z,104
2016-11-13T12:38:03.033Z,100
2016-11-13T12:39:11.729Z,92
2016-11-13T12:40:20.750Z,88
2016-11-13T12:41:30.366Z,88
2016-11-13T12:42:39.052Z,84
2016-11-13T12:43:47.761Z,80
2016-11-13T12:44:56.748Z,76
2016-11-13T12:46:05.757Z,76
2016-11-13T12:47:15.077Z,72
2016-11-13T12:48:24.082Z,76
2016-11-13T12:49:33.728Z,76
2016-11-13T12:50:42.488Z,76
2016-11-13T12:51:51.481Z,76
2016-11-13T12:53:00.512Z,72
2016-11-13T12:54:09.828Z,76
2016-11-13T12:55:18.526Z,72
2016-11-13T12:56:27.836Z,68
2016-11-13T12:57:36.538Z,72
2016-11-13T12:58:45.229Z,68
2016-11-13T12:59:54.544Z,68
2016-11-13T13:01:03.251Z,68
2016-11-13T13:02:11.952Z,68
2016-11-13T13:03:21.268Z,68
2016-11-13T13:04:29.958Z,68
2016-11-13T13:05:39.001Z,64
2016-11-13T13:06:48.025Z,64
2016-11-13T13:07:56.740Z,60
2016-11-13T13:09:05.587Z,60
2016-11-13T13:10:14.897Z,60
2016-11-13T13:11:23.593Z,56
2016-11-13T13:12:33.803Z,56
2016-11-13T13:13:43.289Z,56
2016-11-13T13:14:52.114Z,60
2016-11-13T13:16:01.186Z,60
2016-11-13T13:17:10.193Z,60
2016-11-13T13:18:19.236Z,60
2016-11-13T13:19:27.963Z,60
2016-11-13T13:20:36.814Z,60
2016-11-13T13:21:45.818Z,56
2016-11-13T13:22:54.529Z,56
2016-11-13T13:24:03.226Z,52
2016-11-13T13:25:11.944Z,52
2016-11-13T13:26:21.263Z,52
2016-11-13T13:27:30.264Z,56
2016-11-13T13:28:39.891Z,56
2016-11-13T13:29:48.579Z,52
2016-11-13T13:30:57.896Z,48
2016-11-13T13:32:07.220Z,48
2016-11-13T13:33:16.227Z,48
2016-11-13T13:34:25.255Z,48
2016-11-13T13:35:34.257Z,44
2016-11-13T13:36:43.297Z,40
2016-11-13T13:37:52.447Z,44
2016-11-13T13:39:01.667Z,40
2016-11-13T13:40:11.054Z,40
2016-11-13T13:41:19.748Z,36
2016-11-13T13:42:28.443Z,36
2016-11-13T13:43:37.465Z,32
2016-11-13T13:44:46.495Z,32
2016-11-13T13:45:55.193Z,28
2016-11-13T13:47:04.206Z,32
2016-11-13T13:48:13.517Z,28
2016-11-13T13:49:22.420Z,28
2016-11-13T13:50:31.720Z,28
2016-11-13T13:51:41.350Z,28
2016-11-13T13:52:50.349Z,24
2016-11-13T13:53:59.362Z,24
2016-11-13T13:55:08.690Z,24
2016-11-13T13:56:18.327Z,28
2016-11-13T13:57:27.324Z,24
2016-11-13T13:58:36.008Z,28
2016-11-13T13:59:44.709Z,24
2016-11-13T14:00:54.021Z,24
2016-11-13T14:02:02.719Z,28
2016-11-13T14:03:11.722Z,28
2016-11-13T14:04:20.432Z,28
2016-11-13T14:05:29.577Z,28
2016-11-13T14:06:39.009Z,28
2016-11-13T14:07:48.307Z,28
2016-11-13T14:08:57.091Z,32
2016-11-13T14:10:06.508Z,28
2016-11-13T14:11:16.340Z,28
2016-11-13T14:12:25.945Z,24
2016-11-13T14:13:34.945Z,28
2016-11-13T14:14:44.641Z,28
2016-11-13T14:15:54.401Z,28
2016-11-13T14:17:03.512Z,28
2016-11-13T14:18:12.623Z,28
2016-11-13T14:19:21.934Z,28
2016-11-13T14:20:31.411Z,24
2016-11-13T14:21:40.222Z,24
2016-11-13T14:22:48.933Z,24
2016-11-13T14:23:57.798Z,20
2016-11-13T14:25:06.495Z,24
2016-11-13T14:26:15.799Z,20
2016-11-13T14:27:25.122Z,20
2016-11-13T14:28:34.105Z,20
2016-11-13T14:29:43.732Z,20
2016-11-13T14:30:52.443Z,20
2016-11-13T14:32:01.136Z,16
2016-11-13T14:33:09.886Z,20
2016-11-13T14:34:18.926Z,16
2016-11-13T14:35:28.235Z,16
2016-11-13T14:36:37.353Z,16
2016-11-13T14:37:46.662Z,16
2016-11-13T14:38:56.039Z,16
2016-11-13T14:40:05.053Z,16
2016-11-13T14:41:15.018Z,12
2016-11-13T14:42:24.331Z,12
2016-11-13T14:43:33.041Z,16
2016-11-13T14:44:42.045Z,16
2016-11-13T14:45:51.045Z,12
2016-11-13T14:47:00.387Z,12
2016-11-13T14:48:09.989Z,12
2016-11-13T14:49:19.302Z,16
2016-11-13T14:50:28.003Z,12
2016-11-13T14:51:37.062Z,12
2016-11-13T14:52:46.059Z,12
2016-11-13T14:53:55.061Z,12
2016-11-13T14:55:03.760Z,8
2016-11-13T14:56:13.069Z,8
2016-11-13T14:57:21.761Z,8
2016-11-13T14:58:31.107Z,12
2016-11-13T14:59:40.413Z,12
2016-11-13T15:00:50.041Z,12
2016-11-13T15:01:58.726Z,8
2016-11-13T15:03:07.735Z,8
2016-11-13T15:04:16.751Z,8
2016-11-13T15:05:25.775Z,8
2016-11-13T15:06:35.100Z,8
2016-11-13T15:07:44.116Z,8
2016-11-13T15:08:53.136Z,8
2016-11-13T15:10:01.980Z,8
2016-11-13T15:11:11.014Z,8
2016-11-13T15:12:20.020Z,8
2016-11-13T15:13:29.333Z,4
2016-11-13T15:14:38.353Z,8
2016-11-13T15:15:47.344Z,8
2016-11-13T15:16:56.359Z,8
2016-11-13T15:18:05.967Z,8
2016-11-13T15:19:15.592Z,8
2016-11-13T15:20:24.900Z,4
2016-11-13T15:21:33.636Z,4
2016-11-13T15:22:42.322Z,4
2016-11-13T15:23:51.011Z,8
2016-11-13T15:24:59.744Z,8
2016-11-13T15:26:08.761Z,8
2016-11-13T15:27:18.207Z,4
2016-11-13T15:28:27.540Z,4
2016-11-13T15:29:36.721Z,4
2016-11-13T15:30:46.581Z,8
2016-11-13T15:31:55.458Z,8
2016-11-13T15:33:04.921Z,8
2016-11-13T15:34:14.786Z,4
2016-11-13T15:35:24.268Z,4
2016-11-13T15:36:33.080Z,4
2016-11-13T15:37:41.891Z,4
2016-11-13T15:38:50.945Z,4
2016-11-13T15:40:00.262Z,4
2016-11-13T15:41:09.725Z,4
2016-11-13T15:42:18.784Z,4
2016-11-13T15:43:28.306Z,4
2016-11-13T15:44:37.742Z,4
2016-11-13T15:45:46.806Z,4
2016-11-13T15:46:56.256Z,4
2016-11-13T15:48:06.253Z,4
2016-11-13T15:49:16.458Z,4
2016-11-13T15:50:26.746Z,4
2016-11-13T15:51:35.977Z,4
2016-11-13T15:52:45.590Z,4
2016-11-13T15:53:54.318Z,4
2016-11-13T15:55:03.086Z,4
2016-11-13T15:56:12.374Z,4
2016-11-13T15:57:21.082Z,4
2016-11-13T15:58:30.409Z,4
2016-11-13T15:59:39.413Z,4
2016-11-13T17:24:40.396Z,4
2016-11-13T17:25:49.085Z,8
2016-11-13T17:26:58.081Z,8
2016-11-13T17:28:07.119Z,4
2016-11-13T17:29:16.142Z,4
2016-11-13T17:30:24.834Z,4
2016-11-13T17:31:33.879Z,4
2016-11-13T17:32:42.884Z,4
2016-11-13T17:33:51.887Z,4
2016-11-13T17:35:01.216Z,8
2016-11-13T17:36:10.864Z,8
2016-11-13T17:37:19.554Z,8
2016-11-13T17:38:28.880Z,8
2016-11-13T17:39:38.497Z,8
2016-11-13T17:40:47.538Z,8
2016-11-13T17:41:56.382Z,8
2016-11-13T17:43:05.074Z,4
2016-11-13T17:44:14.373Z,4
2016-11-13T17:45:23.362Z,4
2016-11-13T17:46:32.666Z,4
2016-11-13T17:47:41.977Z,4
2016-11-13T17:48:51.281Z,4
2016-11-13T17:49:59.981Z,4
2016-11-13T17:51:08.668Z,4
2016-11-13T17:52:17.659Z,4
2016-11-13T17:53:26.490Z,4
2016-11-13T17:54:35.472Z,4
2016-11-13T17:55:45.085Z,8
2016-11-13T17:56:53.793Z,8
2016-11-13T17:58:03.104Z,8
2016-11-13T17:59:12.490Z,8
2016-11-13T18:00:21.802Z,8
2016-11-13T18:01:31.111Z,8